Time;durP1;ratioP1;P1;durP2;ratioP2;P2;SDS_P1;SDS_P2;PMS_P1;PMS_P2;Temp;Humidity;BMP_temperature;BMP_pressure;BME280_temperature;BME280_humidity;BME280_pressure;Samples;Min_cycle;Max_cycle;Signal;HPM_P1;HPM_P2
2023/11/29 00:00:03;;;;;;;25.00;23.58;;;;;;;;;;5013954;28;20057;-54
2023/11/29 00:02:29;;;;;;;24.27;22.88;;;;;;;;;;5022615;28;20025;-53
2023/11/29 00:04:55;;;;;;;23.50;22.20;;;;;;;;;;5017728;28;20044;-61
2023/11/29 00:07:20;;;;;;;26.35;24.85;;;;;;;;;;5014366;28;20064;-61
2023/11/29 00:09:46;;;;;;;24.50;23.13;;;;;;;;;;5020315;28;20071;-61
2023/11/29 00:12:12;;;;;;;26.85;25.35;;;;;;;;;;5019689;28;20066;-61
2023/11/29 00:14:37;;;;;;;24.27;22.92;;;;;;;;;;5016253;28;20034;-50
2023/11/29 00:17:04;;;;;;;26.48;24.98;;;;;;;;;;5022178;28;20103;-53
2023/11/29 00:19:29;;;;;;;25.85;24.35;;;;;;;;;;5024248;28;20034;-53
2023/11/29 00:21:55;;;;;;;24.83;23.52;;;;;;;;;;5021605;28;20039;-60
2023/11/29 00:24:20;;;;;;;24.48;23.17;;;;;;;;;;5025222;28;20124;-54
2023/11/29 00:26:46;;;;;;;26.83;25.25;;;;;;;;;;5027070;28;20072;-51
2023/11/29 00:29:11;;;;;;;27.15;25.65;;;;;;;;;;5025170;28;20033;-51
2023/11/29 00:31:36;;;;;;;28.88;27.30;;;;;;;;;;5027607;28;20056;-49
2023/11/29 00:34:02;;;;;;;25.63;24.23;;;;;;;;;;5028258;28;20037;-49
2023/11/29 00:36:27;;;;;;;24.50;23.20;;;;;;;;;;5018442;28;20355;-61
2023/11/29 00:38:53;;;;;;;25.23;23.83;;;;;;;;;;5014814;28;20034;-61
2023/11/29 00:41:18;;;;;;;25.20;23.80;;;;;;;;;;5020533;28;20037;-61
2023/11/29 00:43:43;;;;;;;25.80;24.40;;;;;;;;;;5015637;28;20038;-61
2023/11/29 00:46:09;;;;;;;25.27;23.88;;;;;;;;;;5016487;28;20041;-53
2023/11/29 00:48:34;;;;;;;25.55;24.15;;;;;;;;;;5017608;28;20029;-51
2023/11/29 00:50:59;;;;;;;26.92;25.42;;;;;;;;;;5020610;28;20091;-50
2023/11/29 00:53:25;;;;;;;25.63;24.23;;;;;;;;;;5022969;28;20025;-53
2023/11/29 00:55:50;;;;;;;26.25;24.85;;;;;;;;;;5019427;28;20037;-47
2023/11/29 00:58:17;;;;;;;26.33;24.70;;;;;;;;;;5025504;28;20038;-52
2023/11/29 01:00:43;;;;;;;25.42;23.92;;;;;;;;;;5020522;28;20044;-52
2023/11/29 01:03:08;;;;;;;27.35;25.73;;;;;;;;;;5018772;28;20384;-61
2023/11/29 01:05:34;;;;;;;27.20;25.50;;;;;;;;;;5023457;28;20362;-61
2023/11/29 01:07:59;;;;;;;27.35;25.75;;;;;;;;;;5020595;28;20087;-61
2023/11/29 01:10:24;;;;;;;27.33;25.83;;;;;;;;;;5015916;28;20433;-61
2023/11/29 01:12:50;;;;;;;27.13;25.60;;;;;;;;;;5019255;28;20030;-61
2023/11/29 01:15:15;;;;;;;26.48;24.98;;;;;;;;;;5013750;28;20119;-61
2023/11/29 01:17:41;;;;;;;27.88;26.38;;;;;;;;;;5018940;28;20034;-52
2023/11/29 01:20:06;;;;;;;30.20;28.40;;;;;;;;;;5018592;28;20037;-52
2023/11/29 01:22:32;;;;;;;28.35;26.85;;;;;;;;;;5024310;28;20033;-52
2023/11/29 01:24:58;;;;;;;27.17;25.67;;;;;;;;;;5021360;28;20497;-49
2023/11/29 01:27:23;;;;;;;27.13;25.63;;;;;;;;;;5020099;28;20048;-61
2023/11/29 01:29:49;;;;;;;28.98;27.27;;;;;;;;;;5020261;28;20108;-61
2023/11/29 01:32:14;;;;;;;29.05;27.35;;;;;;;;;;5022623;28;20656;-49
2023/11/29 01:34:41;;;;;;;27.95;26.45;;;;;;;;;;5021191;28;20176;-48
2023/11/29 01:37:07;;;;;;;25.00;23.70;;;;;;;;;;5023512;28;20060;-49
2023/11/29 01:39:33;;;;;;;27.02;25.52;;;;;;;;;;5022148;28;20042;-60
2023/11/29 01:41:58;;;;;;;27.42;25.85;;;;;;;;;;5021298;28;20369;-51
2023/11/29 01:44:23;;;;;;;27.17;25.58;;;;;;;;;;5019486;28;20037;-49
2023/11/29 01:46:50;;;;;;;26.98;25.58;;;;;;;;;;5015302;28;20044;-52
2023/11/29 01:49:18;;;;;;;27.38;25.77;;;;;;;;;;5020888;28;20061;-47
2023/11/29 01:51:44;;;;;;;29.17;27.58;;;;;;;;;;5018499;28;20021;-51
2023/11/29 01:54:09;;;;;;;27.33;25.73;;;;;;;;;;5021982;28;20040;-51
2023/11/29 01:56:35;;;;;;;28.25;26.65;;;;;;;;;;5016506;28;20033;-54
2023/11/29 01:59:00;;;;;;;27.55;26.05;;;;;;;;;;5019371;28;20064;-51
2023/11/29 02:01:25;;;;;;;27.60;25.90;;;;;;;;;;5024961;28;20105;-50
2023/11/29 02:03:51;;;;;;;27.35;25.92;;;;;;;;;;5020016;28;20057;-48
2023/11/29 02:06:16;;;;;;;27.38;25.88;;;;;;;;;;5025462;28;20038;-50
2023/11/29 02:08:42;;;;;;;28.10;26.40;;;;;;;;;;5022181;28;20076;-50
2023/11/29 02:11:09;;;;;;;27.73;26.23;;;;;;;;;;5018974;28;20051;-51
2023/11/29 02:13:35;;;;;;;26.55;25.15;;;;;;;;;;5019838;28;20033;-52
2023/11/29 02:16:00;;;;;;;27.30;25.80;;;;;;;;;;5024587;28;20040;-53
2023/11/29 02:18:25;;;;;;;25.27;23.95;;;;;;;;;;5022641;28;20048;-53
2023/11/29 02:20:51;;;;;;;27.13;25.63;;;;;;;;;;5020343;28;20052;-50
2023/11/29 02:23:34;;;;;;;27.52;26.02;;;;;;;;;;5022880;28;20209;-60
2023/11/29 02:25:59;;;;;;;26.88;25.45;;;;;;;;;;5022072;28;20037;-60
2023/11/29 02:28:24;;;;;;;27.45;25.95;;;;;;;;;;5028340;28;20044;-61
2023/11/29 02:30:50;;;;;;;25.85;24.45;;;;;;;;;;5013842;28;20033;-53
2023/11/29 02:33:15;;;;;;;29.83;28.23;;;;;;;;;;5026630;28;20044;-52
2023/11/29 02:35:40;;;;;;;28.83;27.33;;;;;;;;;;5018795;28;20065;-60
2023/11/29 02:38:05;;;;;;;27.13;25.63;;;;;;;;;;5022361;28;20029;-51
2023/11/29 02:40:31;;;;;;;27.25;25.75;;;;;;;;;;5021649;28;20037;-60
2023/11/29 02:42:57;;;;;;;28.92;27.38;;;;;;;;;;5017543;28;20045;-51
2023/11/29 02:45:22;;;;;;;27.55;26.05;;;;;;;;;;5019771;28;20037;-61
2023/11/29 02:47:48;;;;;;;27.98;26.48;;;;;;;;;;5023853;28;20575;-61
2023/11/29 02:50:14;;;;;;;29.05;27.25;;;;;;;;;;5021474;28;20486;-61
2023/11/29 02:52:39;;;;;;;28.48;26.98;;;;;;;;;;5016743;28;20114;-61
2023/11/29 02:55:06;;;;;;;29.60;28.00;;;;;;;;;;5013262;28;20065;-61
2023/11/29 02:57:32;;;;;;;28.70;27.10;;;;;;;;;;5015850;28;20124;-61
2023/11/29 02:59:57;;;;;;;28.25;26.75;;;;;;;;;;5014760;28;20095;-60
2023/11/29 03:02:23;;;;;;;26.08;24.67;;;;;;;;;;5015047;28;20034;-60
2023/11/29 03:04:49;;;;;;;27.27;25.83;;;;;;;;;;5017920;28;20124;-61
2023/11/29 03:07:15;;;;;;;29.38;27.75;;;;;;;;;;5019641;28;20047;-60
2023/11/29 03:09:41;;;;;;;26.40;24.90;;;;;;;;;;5017045;28;20044;-52
2023/11/29 03:12:08;;;;;;;25.65;24.25;;;;;;;;;;5022664;28;20025;-51
2023/11/29 03:14:33;;;;;;;27.25;25.75;;;;;;;;;;5016664;28;20112;-49
2023/11/29 03:16:58;;;;;;;28.02;26.45;;;;;;;;;;5022103;28;20514;-50
2023/11/29 03:19:24;;;;;;;28.88;27.20;;;;;;;;;;5022559;28;20030;-49
2023/11/29 03:21:49;;;;;;;29.17;27.58;;;;;;;;;;5021826;28;20358;-53
2023/11/29 03:24:15;;;;;;;27.40;25.98;;;;;;;;;;5020734;28;20025;-50
2023/11/29 03:26:43;;;;;;;27.98;26.45;;;;;;;;;;5019252;28;20041;-59
2023/11/29 03:29:09;;;;;;;28.23;26.73;;;;;;;;;;5016912;28;20604;-48
2023/11/29 03:31:34;;;;;;;28.50;26.90;;;;;;;;;;5021851;28;20062;-59
2023/11/29 03:34:00;;;;;;;28.55;26.95;;;;;;;;;;5018582;28;20041;-51
2023/11/29 03:36:25;;;;;;;31.42;29.73;;;;;;;;;;5021766;28;20037;-50
2023/11/29 03:38:50;;;;;;;28.80;27.27;;;;;;;;;;5015936;28;20507;-60
2023/11/29 03:41:16;;;;;;;31.50;29.65;;;;;;;;;;5016701;28;20033;-60
2023/11/29 03:43:41;;;;;;;30.33;28.67;;;;;;;;;;5015434;28;20041;-59
2023/11/29 03:46:06;;;;;;;28.98;27.45;;;;;;;;;;5014971;28;20033;-60
2023/11/29 03:48:32;;;;;;;28.27;26.67;;;;;;;;;;5015602;28;20030;-59
2023/11/29 03:51:00;;;;;;;30.27;28.67;;;;;;;;;;5016537;28;20034;-60
2023/11/29 03:53:25;;;;;;;30.38;28.08;;;;;;;;;;5011893;28;20038;-60
2023/11/29 03:55:51;;;;;;;29.38;27.77;;;;;;;;;;5014936;28;20036;-60
2023/11/29 03:58:16;;;;;;;30.70;29.10;;;;;;;;;;5015238;28;20034;-51
2023/11/29 04:00:41;;;;;;;31.27;29.58;;;;;;;;;;5018889;28;20052;-50
2023/11/29 04:03:07;;;;;;;29.35;27.75;;;;;;;;;;5019064;28;20040;-50
2023/11/29 04:05:32;;;;;;;29.83;28.13;;;;;;;;;;5019457;28;20380;-60
2023/11/29 04:07:57;;;;;;;30.42;28.73;;;;;;;;;;5025706;28;20026;-59
2023/11/29 04:10:23;;;;;;;31.35;29.65;;;;;;;;;;5021540;28;20029;-60
2023/11/29 04:12:48;;;;;;;29.95;28.35;;;;;;;;;;5019199;28;20036;-60
2023/11/29 04:15:14;;;;;;;30.27;28.40;;;;;;;;;;5020446;28;20165;-49
2023/11/29 04:17:39;;;;;;;29.52;27.92;;;;;;;;;;5023966;28;20124;-51
2023/11/29 04:20:05;;;;;;;29.95;28.35;;;;;;;;;;5026307;28;20038;-48
2023/11/29 04:22:30;;;;;;;29.67;28.08;;;;;;;;;;5022043;28;20036;-60
2023/11/29 04:24:56;;;;;;;27.83;26.33;;;;;;;;;;5024048;28;20109;-50
2023/11/29 04:27:21;;;;;;;30.33;28.70;;;;;;;;;;5025318;28;20029;-60
2023/11/29 04:29:46;;;;;;;30.27;28.58;;;;;;;;;;5021549;28;20138;-50
2023/11/29 04:32:12;;;;;;;34.70;32.45;;;;;;;;;;5027616;28;20110;-50
2023/11/29 04:34:37;;;;;;;29.20;27.58;;;;;;;;;;5030168;28;20034;-48
2023/11/29 04:37:03;;;;;;;30.48;28.77;;;;;;;;;;5017917;28;20042;-51
2023/11/29 04:39:28;;;;;;;29.83;28.20;;;;;;;;;;5024534;28;20040;-48
2023/11/29 04:41:54;;;;;;;31.48;29.67;;;;;;;;;;5023003;28;20032;-51
2023/11/29 04:44:19;;;;;;;30.92;29.23;;;;;;;;;;5025078;28;20037;-60
2023/11/29 04:46:45;;;;;;;30.80;29.05;;;;;;;;;;5020144;28;20361;-60
2023/11/29 04:49:10;;;;;;;31.80;30.10;;;;;;;;;;5020308;28;20033;-60
2023/11/29 04:51:35;;;;;;;32.60;30.85;;;;;;;;;;5019075;28;20045;-60
2023/11/29 04:54:01;;;;;;;30.15;28.50;;;;;;;;;;5017185;28;20038;-60
2023/11/29 04:56:26;;;;;;;30.77;28.98;;;;;;;;;;5019681;28;20029;-60
2023/11/29 04:58:51;;;;;;;32.78;30.95;;;;;;;;;;5014235;28;20699;-60
2023/11/29 05:01:17;;;;;;;30.08;28.38;;;;;;;;;;5020003;28;20536;-50
2023/11/29 05:03:42;;;;;;;31.83;29.90;;;;;;;;;;5018457;28;20082;-52
2023/11/29 05:06:10;;;;;;;29.10;27.40;;;;;;;;;;5021794;28;20129;-48
2023/11/29 05:08:35;;;;;;;30.08;28.45;;;;;;;;;;5020137;28;20029;-61
2023/11/29 05:11:01;;;;;;;28.63;27.00;;;;;;;;;;5021862;28;20029;-47
2023/11/29 05:13:27;;;;;;;32.08;30.35;;;;;;;;;;5020962;28;20070;-61
2023/11/29 05:15:52;;;;;;;31.92;30.23;;;;;;;;;;5019324;28;20077;-60
2023/11/29 05:18:18;;;;;;;30.00;28.23;;;;;;;;;;5014756;28;20033;-61
2023/11/29 05:20:44;;;;;;;33.08;30.42;;;;;;;;;;5016098;28;20041;-61
2023/11/29 05:23:09;;;;;;;30.67;29.02;;;;;;;;;;5014894;28;20030;-60
2023/11/29 05:25:34;;;;;;;29.88;28.15;;;;;;;;;;5015038;28;20111;-61
2023/11/29 05:28:00;;;;;;;30.38;28.60;;;;;;;;;;5017454;28;20099;-61
2023/11/29 05:30:25;;;;;;;30.75;29.05;;;;;;;;;;5012543;28;20037;-53
2023/11/29 05:32:50;;;;;;;29.23;27.67;;;;;;;;;;5016623;28;20088;-60
2023/11/29 05:35:16;;;;;;;30.10;28.50;;;;;;;;;;5015509;28;20355;-60
2023/11/29 05:37:41;;;;;;;30.95;29.25;;;;;;;;;;5014116;28;20631;-61
2023/11/29 05:40:08;;;;;;;30.42;28.83;;;;;;;;;;5016544;28;20034;-61
2023/11/29 05:42:38;;;;;;;32.80;30.75;;;;;;;;;;5014217;28;20563;-61
2023/11/29 05:45:06;;;;;;;29.90;28.30;;;;;;;;;;5012510;28;20029;-50
2023/11/29 05:47:31;;;;;;;31.73;29.92;;;;;;;;;;5015963;28;20305;-61
2023/11/29 05:49:59;;;;;;;30.85;29.15;;;;;;;;;;5015936;28;20109;-61
2023/11/29 05:52:25;;;;;;;30.27;28.67;;;;;;;;;;5018080;28;20034;-61
2023/11/29 05:54:50;;;;;;;33.05;31.27;;;;;;;;;;5015473;28;20545;-61
2023/11/29 05:57:16;;;;;;;31.80;30.00;;;;;;;;;;5018580;28;20367;-48
2023/11/29 05:59:41;;;;;;;32.42;30.35;;;;;;;;;;5020825;28;20061;-52
2023/11/29 06:02:06;;;;;;;29.95;28.25;;;;;;;;;;5024197;28;20044;-60
2023/11/29 06:04:32;;;;;;;30.35;28.30;;;;;;;;;;5022655;28;20032;-51
2023/11/29 06:06:57;;;;;;;30.02;28.42;;;;;;;;;;5019217;28;20041;-52
2023/11/29 06:09:28;;;;;;;29.23;27.65;;;;;;;;;;5025582;28;20029;-50
2023/11/29 06:11:57;;;;;;;28.90;27.40;;;;;;;;;;5019174;28;20037;-61
2023/11/29 06:14:22;;;;;;;29.60;27.80;;;;;;;;;;5023194;28;20041;-61
2023/11/29 06:16:51;;;;;;;28.40;26.90;;;;;;;;;;5018988;28;20037;-61
2023/11/29 06:19:16;;;;;;;30.17;28.40;;;;;;;;;;5015993;28;20045;-61
2023/11/29 06:21:42;;;;;;;47.45;43.30;;;;;;;;;;5016808;28;20029;-61
2023/11/29 06:24:09;;;;;;;33.03;31.02;;;;;;;;;;5015464;28;20041;-53
2023/11/29 06:26:37;;;;;;;33.72;31.73;;;;;;;;;;5016490;28;20045;-61
2023/11/29 06:29:03;;;;;;;34.30;32.30;;;;;;;;;;5018100;28;20064;-62
2023/11/29 06:31:29;;;;;;;30.30;28.65;;;;;;;;;;5014920;28;20113;-62
2023/11/29 06:33:54;;;;;;;30.45;28.38;;;;;;;;;;5016777;28;20125;-54
2023/11/29 06:36:20;;;;;;;32.33;30.45;;;;;;;;;;5020921;28;20629;-50
2023/11/29 06:38:45;;;;;;;29.17;27.58;;;;;;;;;;5020579;28;20367;-49
2023/11/29 06:41:11;;;;;;;30.67;28.90;;;;;;;;;;5020863;28;20032;-50
2023/11/29 06:43:36;;;;;;;30.27;28.63;;;;;;;;;;5020618;28;20120;-52
2023/11/29 06:46:02;;;;;;;30.85;29.20;;;;;;;;;;5020387;28;20038;-52
2023/11/29 06:48:28;;;;;;;32.83;31.02;;;;;;;;;;5023054;28;20030;-49
2023/11/29 06:50:54;;;;;;;32.08;30.17;;;;;;;;;;5019122;28;20496;-61
2023/11/29 06:53:19;;;;;;;32.13;30.42;;;;;;;;;;5022426;28;20042;-50
2023/11/29 06:55:48;;;;;;;34.10;32.20;;;;;;;;;;5019540;28;20366;-61
2023/11/29 06:58:14;;;;;;;31.60;29.80;;;;;;;;;;5021954;28;20033;-50
2023/11/29 07:00:39;;;;;;;34.08;32.17;;;;;;;;;;5021274;28;20493;-61
2023/11/29 07:03:04;;;;;;;32.60;30.80;;;;;;;;;;5023630;28;20064;-49
2023/11/29 07:05:30;;;;;;;30.77;29.08;;;;;;;;;;5025657;28;20038;-51
2023/11/29 07:07:55;;;;;;;33.08;31.13;;;;;;;;;;5020220;28;20030;-48
2023/11/29 07:10:21;;;;;;;32.33;30.55;;;;;;;;;;5025004;28;20064;-52
2023/11/29 07:12:48;;;;;;;34.15;32.25;;;;;;;;;;5020114;28;20092;-51
2023/11/29 07:15:15;;;;;;;33.55;31.70;;;;;;;;;;5021074;28;20059;-60
2023/11/29 07:17:40;;;;;;;33.53;31.70;;;;;;;;;;5024113;28;20612;-49
2023/11/29 07:20:06;;;;;;;32.90;31.10;;;;;;;;;;5023397;28;20123;-50
2023/11/29 07:22:34;;;;;;;31.85;30.15;;;;;;;;;;5024647;28;20041;-50
2023/11/29 07:25:01;;;;;;;33.15;31.27;;;;;;;;;;5024095;28;20115;-53
2023/11/29 07:27:26;;;;;;;30.15;28.55;;;;;;;;;;5021678;28;20124;-61
2023/11/29 07:29:51;;;;;;;29.92;28.33;;;;;;;;;;5009647;28;20540;-61
2023/11/29 07:32:20;;;;;;;31.40;29.70;;;;;;;;;;5024804;28;20037;-61
2023/11/29 07:34:47;;;;;;;31.75;30.02;;;;;;;;;;5021283;28;20119;-61
2023/11/29 07:37:13;;;;;;;31.17;29.38;;;;;;;;;;5023191;28;20186;-53
2023/11/29 07:39:39;;;;;;;30.08;28.38;;;;;;;;;;5019808;28;20128;-53
2023/11/29 07:42:04;;;;;;;32.15;30.35;;;;;;;;;;5023971;28;20090;-61
2023/11/29 07:44:30;;;;;;;31.92;30.13;;;;;;;;;;5024926;28;20038;-54
2023/11/29 07:46:55;;;;;;;31.15;29.48;;;;;;;;;;5020475;28;20044;-53
2023/11/29 07:49:20;;;;;;;30.67;29.02;;;;;;;;;;5023339;28;20091;-53
2023/11/29 07:51:46;;;;;;;31.60;29.85;;;;;;;;;;5023514;28;20065;-49
2023/11/29 07:54:12;;;;;;;32.38;30.48;;;;;;;;;;5021181;28;20044;-52
2023/11/29 07:56:37;;;;;;;30.77;28.98;;;;;;;;;;5025058;28;20037;-61
2023/11/29 07:59:03;;;;;;;31.90;30.08;;;;;;;;;;5022647;28;20098;-61
2023/11/29 08:01:28;;;;;;;33.80;31.73;;;;;;;;;;5029319;28;20029;-52
2023/11/29 08:03:55;;;;;;;31.85;30.05;;;;;;;;;;5023806;28;20425;-52
2023/11/29 08:06:21;;;;;;;31.67;30.00;;;;;;;;;;5021881;28;20416;-50
2023/11/29 08:08:46;;;;;;;33.03;31.23;;;;;;;;;;5025609;28;20116;-51
2023/11/29 08:11:12;;;;;;;31.80;30.10;;;;;;;;;;5024335;28;20037;-51
2023/11/29 08:13:37;;;;;;;32.47;30.63;;;;;;;;;;5022968;28;20030;-52
2023/11/29 08:16:03;;;;;;;33.53;31.52;;;;;;;;;;5020267;28;20510;-60
2023/11/29 08:18:28;;;;;;;33.47;31.58;;;;;;;;;;5026128;28;20462;-60
2023/11/29 08:20:53;;;;;;;32.33;30.52;;;;;;;;;;5021361;28;20056;-51
2023/11/29 08:23:19;;;;;;;31.35;29.63;;;;;;;;;;5020784;28;20037;-52
2023/11/29 08:25:46;;;;;;;31.83;30.02;;;;;;;;;;5024819;28;20029;-53
2023/11/29 08:28:11;;;;;;;32.13;30.23;;;;;;;;;;5021279;28;20197;-60
2023/11/29 08:30:37;;;;;;;34.63;32.78;;;;;;;;;;5022306;28;20179;-60
2023/11/29 08:33:02;;;;;;;30.73;29.00;;;;;;;;;;5023422;28;20040;-60
2023/11/29 08:35:27;;;;;;;32.53;30.58;;;;;;;;;;5023416;28;20033;-60
2023/11/29 08:37:53;;;;;;;31.27;29.58;;;;;;;;;;5028390;28;20044;-60
2023/11/29 08:40:19;;;;;;;33.05;31.15;;;;;;;;;;5021857;28;20438;-49
2023/11/29 08:42:45;;;;;;;32.33;30.52;;;;;;;;;;5022428;28;20110;-51
2023/11/29 08:45:11;;;;;;;33.85;32.05;;;;;;;;;;5018683;28;20497;-60
2023/11/29 08:47:36;;;;;;;32.03;30.27;;;;;;;;;;5016872;28;20030;-60
2023/11/29 08:50:02;;;;;;;32.38;30.58;;;;;;;;;;5023930;28;20075;-62
2023/11/29 08:52:28;;;;;;;32.05;30.25;;;;;;;;;;5021404;28;20466;-60
2023/11/29 08:54:53;;;;;;;32.97;31.17;;;;;;;;;;5023960;28;20041;-60
2023/11/29 08:57:25;;;;;;;32.08;30.38;;;;;;;;;;5024207;28;20151;-50
2023/11/29 08:59:51;;;;;;;30.55;28.75;;;;;;;;;;5021704;28;20043;-60
2023/11/29 09:02:21;;;;;;;29.42;27.83;;;;;;;;;;5021254;28;20469;-49
2023/11/29 09:04:47;;;;;;;28.77;27.23;;;;;;;;;;5024973;28;20072;-49
2023/11/29 09:07:13;;;;;;;29.77;28.13;;;;;;;;;;5025889;28;20029;-60
2023/11/29 09:09:40;;;;;;;31.65;29.85;;;;;;;;;;5026725;28;20080;-60
2023/11/29 09:12:06;;;;;;;30.63;28.85;;;;;;;;;;5024767;28;20041;-59
2023/11/29 09:14:31;;;;;;;30.48;28.75;;;;;;;;;;5028484;28;20040;-52
2023/11/29 09:16:56;;;;;;;30.27;28.52;;;;;;;;;;5026383;28;20463;-52
2023/11/29 09:19:22;;;;;;;30.17;28.45;;;;;;;;;;5028072;28;20033;-53
2023/11/29 09:21:48;;;;;;;29.98;28.40;;;;;;;;;;5025891;28;20499;-50
2023/11/29 09:24:14;;;;;;;29.80;28.10;;;;;;;;;;5023204;28;20112;-51
2023/11/29 09:26:40;;;;;;;30.48;28.77;;;;;;;;;;5023604;28;20132;-53
2023/11/29 09:29:05;;;;;;;29.05;27.45;;;;;;;;;;5010900;28;20033;-51
2023/11/29 09:31:31;;;;;;;30.38;28.63;;;;;;;;;;5027726;28;20037;-52
2023/11/29 09:33:57;;;;;;;27.45;25.95;;;;;;;;;;5025543;28;20033;-60
2023/11/29 09:36:22;;;;;;;29.77;28.08;;;;;;;;;;5031565;28;20355;-59
2023/11/29 09:38:48;;;;;;;28.05;26.50;;;;;;;;;;5024718;28;20038;-59
2023/11/29 09:41:13;;;;;;;29.17;27.58;;;;;;;;;;5026090;28;20029;-59
2023/11/29 09:43:39;;;;;;;27.92;26.42;;;;;;;;;;5028835;28;20037;-60
2023/11/29 09:46:05;;;;;;;27.90;26.33;;;;;;;;;;5023057;28;20091;-59
2023/11/29 09:48:30;;;;;;;27.67;26.08;;;;;;;;;;5023252;28;20377;-52
2023/11/29 09:50:56;;;;;;;29.35;27.65;;;;;;;;;;5028084;28;20120;-51
2023/11/29 09:53:23;;;;;;;28.70;27.10;;;;;;;;;;5026635;28;20397;-51
2023/11/29 09:55:49;;;;;;;28.10;26.50;;;;;;;;;;5020947;28;20121;-51
2023/11/29 09:58:15;;;;;;;27.48;25.98;;;;;;;;;;5010758;28;20124;-58
2023/11/29 10:00:41;;;;;;;26.95;25.42;;;;;;;;;;5023773;28;20029;-59
2023/11/29 10:03:14;;;;;;;26.70;25.20;;;;;;;;;;5018800;28;20053;-59
2023/11/29 10:05:47;;;;;;;28.88;27.10;;;;;;;;;;5019433;28;20544;-59
2023/11/29 10:08:19;;;;;;;27.45;25.95;;;;;;;;;;5022288;28;20472;-59
2023/11/29 10:10:45;;;;;;;26.73;25.27;;;;;;;;;;5022575;28;20071;-53
2023/11/29 10:13:12;;;;;;;26.90;25.35;;;;;;;;;;5022628;28;20042;-60
2023/11/29 10:15:37;;;;;;;26.05;24.58;;;;;;;;;;5021751;28;20044;-49
2023/11/29 10:18:03;;;;;;;26.48;25.02;;;;;;;;;;5021855;28;20555;-53
2023/11/29 10:20:29;;;;;;;27.52;26.02;;;;;;;;;;5024435;28;20379;-60
2023/11/29 10:22:55;;;;;;;26.23;24.80;;;;;;;;;;5024035;28;20609;-60
2023/11/29 10:25:21;;;;;;;27.88;26.27;;;;;;;;;;5027384;28;20203;-61
2023/11/29 10:27:47;;;;;;;29.38;27.77;;;;;;;;;;5022806;28;20040;-61
2023/11/29 10:30:13;;;;;;;27.08;25.58;;;;;;;;;;5022696;28;20029;-61
2023/11/29 10:32:40;;;;;;;29.17;27.58;;;;;;;;;;5022966;28;20117;-50
2023/11/29 10:35:10;;;;;;;29.30;27.70;;;;;;;;;;5024404;28;20090;-60
2023/11/29 10:37:41;;;;;;;27.60;26.10;;;;;;;;;;5039240;28;20366;-52
2023/11/29 10:40:09;;;;;;;28.30;26.67;;;;;;;;;;5021913;28;20451;-50
2023/11/29 10:42:36;;;;;;;28.45;26.85;;;;;;;;;;5022348;28;20041;-61
2023/11/29 10:45:02;;;;;;;28.20;26.70;;;;;;;;;;5025199;28;20049;-61
2023/11/29 10:47:34;;;;;;;28.02;26.50;;;;;;;;;;5023649;28;20038;-61
2023/11/29 10:50:02;;;;;;;28.13;26.63;;;;;;;;;;5024903;28;20042;-48
2023/11/29 10:52:27;;;;;;;26.10;24.70;;;;;;;;;;5023654;28;20363;-49
2023/11/29 10:54:53;;;;;;;28.20;26.60;;;;;;;;;;5025010;28;20037;-60
2023/11/29 10:57:29;;;;;;;28.08;26.58;;;;;;;;;;5024525;28;20120;-49
2023/11/29 11:00:06;;;;;;;28.02;26.52;;;;;;;;;;5023723;28;20471;-49
2023/11/29 11:02:31;;;;;;;30.13;28.52;;;;;;;;;;5022729;28;20044;-48
2023/11/29 11:05:05;;;;;;;29.40;27.83;;;;;;;;;;5024473;28;20030;-61
2023/11/29 11:07:44;;;;;;;28.38;26.85;;;;;;;;;;5024746;28;20034;-49
2023/11/29 11:10:20;;;;;;;29.20;27.60;;;;;;;;;;5025185;28;20034;-50
2023/11/29 11:12:46;;;;;;;28.77;27.25;;;;;;;;;;5024605;28;20048;-61
2023/11/29 11:15:19;;;;;;;29.00;27.40;;;;;;;;;;5022346;28;20037;-61
2023/11/29 11:18:04;;;;;;;30.65;28.95;;;;;;;;;;5023768;28;20036;-61
2023/11/29 11:21:05;;;;;;;28.45;26.85;;;;;;;;;;5020314;28;20038;-50
2023/11/29 11:23:30;;;;;;;27.45;25.95;;;;;;;;;;5001539;28;20079;-51
2023/11/29 11:25:56;;;;;;;29.77;27.88;;;;;;;;;;5023541;28;20061;-52
2023/11/29 11:28:33;;;;;;;27.98;26.48;;;;;;;;;;5020758;28;20443;-61
2023/11/29 11:31:06;;;;;;;27.15;25.73;;;;;;;;;;5022884;28;20072;-51
2023/11/29 11:33:50;;;;;;;29.33;27.75;;;;;;;;;;5021530;28;20033;-61
2023/11/29 11:36:18;;;;;;;28.58;26.83;;;;;;;;;;5021164;28;20119;-49
2023/11/29 11:38:44;;;;;;;27.60;26.00;;;;;;;;;;5024732;28;20355;-49
2023/11/29 11:41:10;;;;;;;27.70;26.13;;;;;;;;;;5022245;28;20104;-61
2023/11/29 11:43:35;;;;;;;26.67;25.17;;;;;;;;;;5026511;28;20030;-51
2023/11/29 11:46:00;;;;;;;28.23;26.50;;;;;;;;;;5020610;28;20099;-50
2023/11/29 11:48:26;;;;;;;28.27;26.50;;;;;;;;;;5020625;28;20025;-52
2023/11/29 11:50:53;;;;;;;27.30;25.75;;;;;;;;;;5021080;28;20129;-52
2023/11/29 11:53:18;;;;;;;26.52;25.13;;;;;;;;;;5025518;28;20041;-54
2023/11/29 11:55:47;;;;;;;28.05;26.38;;;;;;;;;;5020317;28;20382;-50
2023/11/29 11:58:18;;;;;;;26.92;25.35;;;;;;;;;;5020787;28;20139;-53
2023/11/29 12:00:45;;;;;;;28.05;26.55;;;;;;;;;;5023562;28;20037;-50
2023/11/29 12:03:11;;;;;;;28.05;26.33;;;;;;;;;;5019092;28;20355;-60
2023/11/29 12:05:36;;;;;;;28.05;26.45;;;;;;;;;;5016923;28;20042;-55
2023/11/29 12:08:02;;;;;;;27.65;26.15;;;;;;;;;;5018067;28;20026;-52
2023/11/29 12:10:28;;;;;;;28.20;26.60;;;;;;;;;;5019327;28;20038;-48
2023/11/29 12:12:54;;;;;;;27.27;25.77;;;;;;;;;;5021293;28;20831;-62
2023/11/29 12:15:19;;;;;;;28.80;27.23;;;;;;;;;;5018618;28;20037;-61
2023/11/29 12:17:48;;;;;;;27.73;26.15;;;;;;;;;;5019197;28;20040;-61
2023/11/29 12:20:14;;;;;;;26.88;25.48;;;;;;;;;;5022074;28;20060;-53
2023/11/29 12:22:44;;;;;;;27.23;25.75;;;;;;;;;;5018010;28;20041;-61
2023/11/29 12:25:14;;;;;;;28.38;26.83;;;;;;;;;;5019541;28;20034;-61
2023/11/29 12:27:43;;;;;;;29.23;27.63;;;;;;;;;;5020821;28;20033;-60
2023/11/29 12:30:09;;;;;;;30.50;28.83;;;;;;;;;;5021790;28;20103;-61
2023/11/29 12:32:34;;;;;;;28.80;27.25;;;;;;;;;;5022248;28;20037;-61
2023/11/29 12:35:00;;;;;;;28.58;27.00;;;;;;;;;;5027354;28;20068;-54
2023/11/29 12:37:26;;;;;;;28.33;26.83;;;;;;;;;;5029593;28;20120;-52
2023/11/29 12:39:52;;;;;;;28.13;26.55;;;;;;;;;;5026373;28;20037;-61
2023/11/29 12:42:18;;;;;;;30.42;28.65;;;;;;;;;;5029453;28;20033;-51
2023/11/29 12:44:43;;;;;;;30.10;28.10;;;;;;;;;;5024261;28;20033;-53
2023/11/29 12:47:09;;;;;;;29.52;27.73;;;;;;;;;;5027746;28;20025;-52
2023/11/29 12:49:34;;;;;;;29.17;27.52;;;;;;;;;;5026707;28;20029;-52
2023/11/29 12:52:00;;;;;;;27.88;26.35;;;;;;;;;;5024822;28;20041;-61
2023/11/29 12:54:26;;;;;;;28.52;26.95;;;;;;;;;;5026748;28;20052;-60
2023/11/29 12:56:52;;;;;;;29.30;27.70;;;;;;;;;;5025117;28;20436;-60
2023/11/29 12:59:17;;;;;;;29.23;27.60;;;;;;;;;;5020759;28;20449;-60
2023/11/29 13:01:43;;;;;;;30.73;29.08;;;;;;;;;;5027028;28;20091;-49
2023/11/29 13:04:09;;;;;;;33.92;30.83;;;;;;;;;;5023756;28;20366;-49
2023/11/29 13:06:34;;;;;;;31.33;29.65;;;;;;;;;;5025627;28;20090;-49
2023/11/29 13:09:00;;;;;;;32.08;30.08;;;;;;;;;;5027729;28;20033;-54
2023/11/29 13:11:26;;;;;;;33.42;31.65;;;;;;;;;;5025849;28;20053;-53
2023/11/29 13:13:52;;;;;;;33.85;32.03;;;;;;;;;;5025739;28;20367;-54
2023/11/29 13:16:18;;;;;;;33.03;31.20;;;;;;;;;;5025691;28;20038;-50
2023/11/29 13:18:43;;;;;;;33.10;31.23;;;;;;;;;;5025040;28;20122;-52
2023/11/29 13:21:09;;;;;;;33.72;31.92;;;;;;;;;;5024401;28;20033;-51
2023/11/29 13:23:35;;;;;;;33.72;31.73;;;;;;;;;;5027146;28;20038;-52
2023/11/29 13:26:01;;;;;;;31.73;30.05;;;;;;;;;;5025572;28;20044;-60
2023/11/29 13:28:30;;;;;;;33.88;32.03;;;;;;;;;;5023970;28;20013;-61
2023/11/29 13:30:56;;;;;;;32.50;30.80;;;;;;;;;;5024406;28;20025;-50
2023/11/29 13:33:21;;;;;;;35.70;33.70;;;;;;;;;;5026435;28;20044;-59
2023/11/29 13:35:47;;;;;;;34.05;32.20;;;;;;;;;;5028335;28;20139;-52
2023/11/29 13:38:14;;;;;;;35.63;33.72;;;;;;;;;;5011034;28;20474;-60
2023/11/29 13:40:39;;;;;;;36.03;34.03;;;;;;;;;;5025210;28;20458;-51
2023/11/29 13:43:05;;;;;;;34.28;32.47;;;;;;;;;;5028968;28;20028;-52
2023/11/29 13:45:30;;;;;;;35.10;33.22;;;;;;;;;;5024508;28;20041;-60
2023/11/29 13:47:56;;;;;;;34.70;32.90;;;;;;;;;;5027255;28;20474;-60
2023/11/29 13:50:22;;;;;;;33.05;31.30;;;;;;;;;;5025095;28;20025;-60
2023/11/29 13:52:48;;;;;;;34.17;32.33;;;;;;;;;;5025211;28;20493;-53
2023/11/29 13:55:14;;;;;;;33.50;31.67;;;;;;;;;;5024757;28;20481;-53
2023/11/29 13:57:39;;;;;;;32.35;30.65;;;;;;;;;;5027132;28;20462;-55
2023/11/29 14:00:05;;;;;;;33.60;31.55;;;;;;;;;;5025686;28;20044;-61
2023/11/29 14:02:31;;;;;;;33.92;31.88;;;;;;;;;;5026058;28;20481;-60
2023/11/29 14:04:56;;;;;;;32.38;30.65;;;;;;;;;;5024452;28;20111;-60
2023/11/29 14:07:22;;;;;;;33.63;31.70;;;;;;;;;;5025790;28;20087;-50
2023/11/29 14:09:47;;;;;;;31.77;30.08;;;;;;;;;;5022031;28;20048;-59